createdAt,value
2023-05-23T00:01:31.500Z,17.43
2023-05-23T00:04:02.062Z,17.56
2023-05-23T00:06:34.568Z,17.51
2023-05-23T00:09:03.537Z,17.57
2023-05-23T00:11:31.613Z,17.42
2023-05-23T00:14:01.346Z,17.27
2023-05-23T00:16:29.891Z,17.23
2023-05-23T00:18:59.421Z,17.30
2023-05-23T00:21:29.586Z,17.26
2023-05-23T00:23:58.340Z,17.19
2023-05-23T00:26:29.968Z,17.25
2023-05-23T00:28:58.969Z,17.23
2023-05-23T00:31:27.152Z,16.91
2023-05-23T00:33:55.313Z,17.10
2023-05-23T00:36:24.362Z,17.07
2023-05-23T00:38:54.390Z,17.05
2023-05-23T00:41:22.460Z,17.04
2023-05-23T00:43:50.509Z,16.85
2023-05-23T00:46:18.649Z,16.85
2023-05-23T00:48:46.968Z,16.78
2023-05-23T00:51:15.295Z,16.85
2023-05-23T00:53:44.362Z,16.79
2023-05-23T00:56:14.057Z,16.72
2023-05-23T00:58:42.280Z,16.74
2023-05-23T01:01:10.411Z,16.82
2023-05-23T01:03:38.567Z,16.78
2023-05-23T01:06:07.443Z,16.82
2023-05-23T01:08:35.449Z,16.79
2023-05-23T01:11:10.329Z,16.68
2023-05-23T01:13:44.434Z,16.66
2023-05-23T01:16:16.242Z,16.56
2023-05-23T01:18:50.530Z,16.63
2023-05-23T01:21:19.585Z,16.50
2023-05-23T01:24:14.951Z,16.57
2023-05-23T01:27:02.337Z,16.50
2023-05-23T01:29:35.647Z,16.53
2023-05-23T01:32:07.282Z,16.43
2023-05-23T01:34:37.927Z,16.34
2023-05-23T01:37:10.242Z,16.35
2023-05-23T01:39:38.850Z,16.34
2023-05-23T01:42:07.855Z,16.38
2023-05-23T01:44:39.432Z,16.35
2023-05-23T01:47:10.901Z,16.24
2023-05-23T01:49:40.149Z,16.26
2023-05-23T01:52:10.575Z,16.20
2023-05-23T01:54:42.646Z,16.25
2023-05-23T01:57:12.075Z,16.24
2023-05-23T01:59:41.853Z,16.08
2023-05-23T02:02:10.162Z,16.12
2023-05-23T02:04:38.404Z,16.09
2023-05-23T02:07:07.536Z,15.98
2023-05-23T02:09:35.833Z,15.94
2023-05-23T02:12:03.970Z,15.91
2023-05-23T02:14:32.106Z,15.88
2023-05-23T02:17:01.650Z,15.89
2023-05-23T02:19:29.930Z,15.77
2023-05-23T02:21:58.149Z,15.88
2023-05-23T02:24:26.236Z,15.85
2023-05-23T02:26:54.326Z,15.80
2023-05-23T02:29:22.560Z,15.72
2023-05-23T02:31:51.085Z,15.78
2023-05-23T02:34:20.577Z,15.69
2023-05-23T02:36:48.609Z,15.68
2023-05-23T02:39:16.751Z,15.69
2023-05-23T02:41:46.195Z,15.69
2023-05-23T02:44:14.297Z,15.70
2023-05-23T02:46:43.139Z,15.71
2023-05-23T02:49:11.465Z,15.61
2023-05-23T02:51:40.879Z,15.58
2023-05-23T02:54:09.013Z,15.61
2023-05-23T02:56:38.789Z,15.63
2023-05-23T02:59:07.581Z,15.64
2023-05-23T03:01:35.738Z,15.49
2023-05-23T03:04:04.445Z,15.44
2023-05-23T03:06:34.241Z,15.50
2023-05-23T03:09:04.003Z,15.55
2023-05-23T03:11:32.301Z,15.48
2023-05-23T03:14:01.058Z,15.50
2023-05-23T03:16:29.233Z,15.46
2023-05-23T03:18:57.536Z,15.50
2023-05-23T03:21:26.214Z,15.49
2023-05-23T03:23:54.323Z,15.54
2023-05-23T03:26:24.020Z,15.48
2023-05-23T03:28:52.267Z,15.61
2023-05-23T03:31:21.139Z,15.42
2023-05-23T03:33:49.418Z,15.48
2023-05-23T03:36:18.580Z,15.56
2023-05-23T03:38:46.895Z,15.21
2023-05-23T03:41:15.917Z,15.54
2023-05-23T03:43:55.825Z,15.46
2023-05-23T03:46:24.952Z,15.49
2023-05-23T03:48:53.073Z,15.50
2023-05-23T03:51:21.683Z,15.73
2023-05-23T03:53:49.852Z,15.50
2023-05-23T03:56:18.632Z,15.69
2023-05-23T03:58:48.248Z,15.92
2023-05-23T04:01:17.534Z,15.78
2023-05-23T04:03:48.262Z,15.70
2023-05-23T04:06:18.388Z,15.81
2023-05-23T04:08:48.371Z,16.02
2023-05-23T04:11:17.067Z,15.95
2023-05-23T04:13:47.294Z,16.01
2023-05-23T04:16:17.258Z,16.19
2023-05-23T04:18:47.295Z,16.27
2023-05-23T04:21:15.700Z,16.43
2023-05-23T04:23:52.309Z,16.61
2023-05-23T04:26:20.647Z,16.61
2023-05-23T04:28:54.386Z,16.79
2023-05-23T04:31:24.628Z,16.88
2023-05-23T04:33:53.087Z,17.03
2023-05-23T04:36:23.650Z,17.06
2023-05-23T04:38:55.966Z,17.10
2023-05-23T04:41:24.568Z,17.19
2023-05-23T04:44:10.647Z,17.32
2023-05-23T04:46:45.734Z,17.44
2023-05-23T04:49:21.528Z,17.52
2023-05-23T04:51:50.035Z,17.31
2023-05-23T04:54:40.650Z,17.58
2023-05-23T04:57:09.013Z,17.61
2023-05-23T04:59:38.292Z,17.62
2023-05-23T05:02:09.492Z,17.50
2023-05-23T05:04:37.644Z,17.57
2023-05-23T05:07:07.920Z,17.52
2023-05-23T05:09:36.467Z,17.71
2023-05-23T05:12:04.536Z,17.91
2023-05-23T05:14:32.651Z,17.60
2023-05-23T05:17:02.857Z,17.86
2023-05-23T05:19:40.305Z,18.11
2023-05-23T05:22:08.767Z,18.16
2023-05-23T05:24:37.150Z,18.00
2023-05-23T05:27:05.860Z,17.97
2023-05-23T05:29:34.148Z,18.04
2023-05-23T05:32:03.512Z,18.34
2023-05-23T05:34:32.005Z,18.53
2023-05-23T05:37:02.106Z,18.64
2023-05-23T05:39:30.301Z,18.76
2023-05-23T05:41:58.399Z,18.77
2023-05-23T05:44:27.152Z,18.93
2023-05-23T05:46:55.791Z,19.08
2023-05-23T05:49:23.836Z,18.98
2023-05-23T05:51:52.378Z,19.23
2023-05-23T05:54:21.808Z,19.35
2023-05-23T05:56:49.885Z,19.35
2023-05-23T05:59:18.177Z,19.49
2023-05-23T06:01:46.291Z,19.46
2023-05-23T06:04:15.185Z,19.58
2023-05-23T06:06:43.738Z,19.45
2023-05-23T06:09:12.204Z,19.65
2023-05-23T06:11:41.796Z,19.77
2023-05-23T06:14:10.139Z,19.91
2023-05-23T06:16:42.625Z,20.09
2023-05-23T06:19:10.908Z,20.24
2023-05-23T06:21:40.687Z,20.25
2023-05-23T06:24:11.239Z,20.37
2023-05-23T06:26:39.377Z,20.43
2023-05-23T06:29:08.938Z,20.36
2023-05-23T06:31:37.083Z,20.50
2023-05-23T06:34:06.768Z,20.53
2023-05-23T06:36:34.961Z,20.64
2023-05-23T06:39:03.018Z,20.81
2023-05-23T06:41:31.589Z,20.86
2023-05-23T06:43:59.662Z,20.95
2023-05-23T06:46:32.910Z,21.05
2023-05-23T06:49:13.623Z,21.08
2023-05-23T06:51:44.056Z,20.94
2023-05-23T06:54:12.642Z,20.99
2023-05-23T06:56:40.694Z,21.31
2023-05-23T06:59:08.844Z,21.13
2023-05-23T07:01:38.792Z,21.24
2023-05-23T07:04:07.237Z,21.49
2023-05-23T07:06:36.978Z,21.32
2023-05-23T07:09:12.849Z,21.59
2023-05-23T07:11:41.858Z,21.80
2023-05-23T07:14:10.870Z,21.87
2023-05-23T07:16:44.251Z,21.76
2023-05-23T07:19:12.560Z,21.79
2023-05-23T07:21:47.256Z,22.02
2023-05-23T07:24:18.230Z,22.24
2023-05-23T07:26:46.428Z,22.35
2023-05-23T07:29:14.523Z,22.42
2023-05-23T07:31:45.110Z,22.52
2023-05-23T07:34:14.900Z,22.62
2023-05-23T07:36:52.017Z,22.67
2023-05-23T07:39:22.603Z,22.68
2023-05-23T07:41:52.083Z,22.87
2023-05-23T07:44:23.937Z,22.81
2023-05-23T07:46:54.928Z,23.05
2023-05-23T07:49:23.370Z,23.21
2023-05-23T07:51:51.665Z,22.84
2023-05-23T07:54:19.837Z,22.27
2023-05-23T07:56:50.175Z,22.78
2023-05-23T07:59:19.410Z,23.21
2023-05-23T08:01:51.408Z,23.20
2023-05-23T08:04:22.964Z,23.50
2023-05-23T08:07:04.910Z,23.62
2023-05-23T08:09:47.073Z,23.82
2023-05-23T08:12:19.314Z,23.82
2023-05-23T08:14:52.181Z,23.72
2023-05-23T08:17:38.889Z,23.12
2023-05-23T08:20:10.304Z,23.43
2023-05-23T08:22:38.839Z,23.39
2023-05-23T08:25:07.844Z,23.60
2023-05-23T08:27:38.509Z,23.83
2023-05-23T08:30:18.139Z,24.07
2023-05-23T08:32:46.470Z,23.99
2023-05-23T08:35:16.172Z,23.87
2023-05-23T08:37:46.283Z,23.94
2023-05-23T08:40:19.639Z,24.10
2023-05-23T08:42:52.537Z,24.45
2023-05-23T08:45:21.995Z,24.46
2023-05-23T08:47:52.544Z,24.44
2023-05-23T08:50:24.408Z,24.72
2023-05-23T08:52:57.152Z,24.69
2023-05-23T08:55:27.895Z,24.70
2023-05-23T08:57:57.739Z,24.91
2023-05-23T09:00:36.602Z,24.95
2023-05-23T09:03:05.111Z,24.64
